sensor_id;sensor_type;location;lat;lon;timestamp;P1;durP1;ratioP1;P2;durP2;ratioP2
71965;SDS011;59836;52.132;5.442;2022-11-20T00:00:15;36.22;;;15.30;;
71965;SDS011;59836;52.132;5.442;2022-11-20T00:02:44;32.97;;;15.35;;
71965;SDS011;59836;52.132;5.442;2022-11-20T00:05:10;25.85;;;13.38;;
71965;SDS011;59836;52.132;5.442;2022-11-20T00:07:37;26.90;;;13.70;;
71965;SDS011;59836;52.132;5.442;2022-11-20T00:15:42;28.02;;;12.90;;
71965;SDS011;59836;52.132;5.442;2022-11-20T00:18:08;25.30;;;12.60;;
71965;SDS011;59836;52.132;5.442;2022-11-20T00:23:19;26.63;;;12.40;;
71965;SDS011;59836;52.132;5.442;2022-11-20T00:28:36;22.55;;;11.40;;
71965;SDS011;59836;52.132;5.442;2022-11-20T00:31:07;20.15;;;10.52;;
71965;SDS011;59836;52.132;5.442;2022-11-20T00:33:38;18.80;;;9.23;;
71965;SDS011;59836;52.132;5.442;2022-11-20T00:36:13;18.00;;;9.38;;
71965;SDS011;59836;52.132;5.442;2022-11-20T00:38:44;20.08;;;10.07;;
71965;SDS011;59836;52.132;5.442;2022-11-20T00:41:13;17.00;;;9.93;;
71965;SDS011;59836;52.132;5.442;2022-11-20T00:46:22;16.77;;;9.10;;
71965;SDS011;59836;52.132;5.442;2022-11-20T00:48:57;16.90;;;9.07;;
71965;SDS011;59836;52.132;5.442;2022-11-20T00:51:25;16.58;;;9.60;;
71965;SDS011;59836;52.132;5.442;2022-11-20T00:53:54;15.65;;;9.20;;
71965;SDS011;59836;52.132;5.442;2022-11-20T00:56:31;16.25;;;9.38;;
71965;SDS011;59836;52.132;5.442;2022-11-20T00:59:03;24.03;;;9.50;;
71965;SDS011;59836;52.132;5.442;2022-11-20T01:01:46;17.42;;;8.35;;
71965;SDS011;59836;52.132;5.442;2022-11-20T01:04:13;22.52;;;10.02;;
71965;SDS011;59836;52.132;5.442;2022-11-20T01:06:39;20.13;;;8.68;;
71965;SDS011;59836;52.132;5.442;2022-11-20T01:09:07;21.60;;;8.50;;
71965;SDS011;59836;52.132;5.442;2022-11-20T01:11:38;22.70;;;8.83;;
71965;SDS011;59836;52.132;5.442;2022-11-20T01:14:07;23.63;;;9.88;;
71965;SDS011;59836;52.132;5.442;2022-11-20T01:22:18;18.35;;;9.10;;
71965;SDS011;59836;52.132;5.442;2022-11-20T01:24:53;16.67;;;9.17;;
71965;SDS011;59836;52.132;5.442;2022-11-20T01:27:31;19.60;;;8.48;;
71965;SDS011;59836;52.132;5.442;2022-11-20T01:30:04;16.80;;;9.55;;
71965;SDS011;59836;52.132;5.442;2022-11-20T01:35:23;15.02;;;8.88;;
71965;SDS011;59836;52.132;5.442;2022-11-20T01:37:51;17.50;;;9.40;;
71965;SDS011;59836;52.132;5.442;2022-11-20T01:43:13;19.70;;;9.43;;
71965;SDS011;59836;52.132;5.442;2022-11-20T01:48:52;19.65;;;8.73;;
71965;SDS011;59836;52.132;5.442;2022-11-20T01:51:28;17.60;;;8.47;;
71965;SDS011;59836;52.132;5.442;2022-11-20T01:54:19;17.95;;;8.93;;
71965;SDS011;59836;52.132;5.442;2022-11-20T01:57:01;18.70;;;8.60;;
71965;SDS011;59836;52.132;5.442;2022-11-20T01:59:44;18.77;;;8.70;;
71965;SDS011;59836;52.132;5.442;2022-11-20T02:02:18;21.35;;;9.07;;
71965;SDS011;59836;52.132;5.442;2022-11-20T02:04:45;17.47;;;8.43;;
71965;SDS011;59836;52.132;5.442;2022-11-20T02:07:17;16.33;;;8.40;;
71965;SDS011;59836;52.132;5.442;2022-11-20T02:09:50;20.40;;;9.15;;
71965;SDS011;59836;52.132;5.442;2022-11-20T02:12:23;14.15;;;7.43;;
71965;SDS011;59836;52.132;5.442;2022-11-20T02:15:14;14.52;;;7.93;;
71965;SDS011;59836;52.132;5.442;2022-11-20T02:17:41;16.57;;;8.57;;
71965;SDS011;59836;52.132;5.442;2022-11-20T02:20:07;12.80;;;7.38;;
71965;SDS011;59836;52.132;5.442;2022-11-20T02:22:38;15.23;;;8.10;;
71965;SDS011;59836;52.132;5.442;2022-11-20T02:25:14;13.43;;;7.55;;
71965;SDS011;59836;52.132;5.442;2022-11-20T02:30:16;16.60;;;7.57;;
71965;SDS011;59836;52.132;5.442;2022-11-20T02:32:47;25.42;;;8.80;;
71965;SDS011;59836;52.132;5.442;2022-11-20T02:37:43;14.23;;;7.35;;
71965;SDS011;59836;52.132;5.442;2022-11-20T02:40:16;16.25;;;8.15;;
71965;SDS011;59836;52.132;5.442;2022-11-20T02:42:43;13.57;;;6.83;;
71965;SDS011;59836;52.132;5.442;2022-11-20T02:45:10;13.40;;;6.57;;
71965;SDS011;59836;52.132;5.442;2022-11-20T02:47:40;17.05;;;7.95;;
71965;SDS011;59836;52.132;5.442;2022-11-20T02:50:07;14.93;;;7.57;;
71965;SDS011;59836;52.132;5.442;2022-11-20T02:52:35;14.40;;;7.30;;
71965;SDS011;59836;52.132;5.442;2022-11-20T02:55:01;14.47;;;7.13;;
71965;SDS011;59836;52.132;5.442;2022-11-20T02:57:30;15.02;;;7.35;;
71965;SDS011;59836;52.132;5.442;2022-11-20T03:00:04;14.40;;;7.55;;
71965;SDS011;59836;52.132;5.442;2022-11-20T03:02:36;14.32;;;7.57;;
71965;SDS011;59836;52.132;5.442;2022-11-20T03:07:33;15.77;;;7.20;;
71965;SDS011;59836;52.132;5.442;2022-11-20T03:12:37;14.23;;;7.97;;
71965;SDS011;59836;52.132;5.442;2022-11-20T03:15:03;12.98;;;7.30;;
71965;SDS011;59836;52.132;5.442;2022-11-20T03:17:31;15.93;;;8.27;;
71965;SDS011;59836;52.132;5.442;2022-11-20T03:19:58;12.17;;;7.77;;
71965;SDS011;59836;52.132;5.442;2022-11-20T03:22:31;12.88;;;7.13;;
71965;SDS011;59836;52.132;5.442;2022-11-20T03:24:57;14.15;;;7.90;;
71965;SDS011;59836;52.132;5.442;2022-11-20T03:27:24;14.77;;;7.45;;
71965;SDS011;59836;52.132;5.442;2022-11-20T03:29:50;13.30;;;7.25;;
71965;SDS011;59836;52.132;5.442;2022-11-20T03:32:17;14.37;;;7.20;;
71965;SDS011;59836;52.132;5.442;2022-11-20T03:34:43;14.80;;;7.70;;
71965;SDS011;59836;52.132;5.442;2022-11-20T03:37:10;15.75;;;7.50;;
71965;SDS011;59836;52.132;5.442;2022-11-20T03:39:36;11.40;;;6.95;;
71965;SDS011;59836;52.132;5.442;2022-11-20T03:42:02;11.70;;;6.80;;
71965;SDS011;59836;52.132;5.442;2022-11-20T03:44:49;10.40;;;5.67;;
71965;SDS011;59836;52.132;5.442;2022-11-20T03:47:15;12.75;;;7.68;;
71965;SDS011;59836;52.132;5.442;2022-11-20T03:49:41;13.85;;;7.82;;
71965;SDS011;59836;52.132;5.442;2022-11-20T03:52:08;11.82;;;6.07;;
71965;SDS011;59836;52.132;5.442;2022-11-20T03:54:34;13.85;;;6.18;;
71965;SDS011;59836;52.132;5.442;2022-11-20T03:57:01;11.90;;;6.63;;
71965;SDS011;59836;52.132;5.442;2022-11-20T03:59:27;14.77;;;6.82;;
71965;SDS011;59836;52.132;5.442;2022-11-20T04:01:53;15.93;;;7.05;;
71965;SDS011;59836;52.132;5.442;2022-11-20T04:04:20;12.00;;;5.78;;
71965;SDS011;59836;52.132;5.442;2022-11-20T04:06:46;12.93;;;6.60;;
71965;SDS011;59836;52.132;5.442;2022-11-20T04:09:12;11.27;;;6.33;;
71965;SDS011;59836;52.132;5.442;2022-11-20T04:11:40;11.82;;;6.72;;
71965;SDS011;59836;52.132;5.442;2022-11-20T04:14:11;11.43;;;6.88;;
71965;SDS011;59836;52.132;5.442;2022-11-20T04:16:39;11.50;;;6.18;;
71965;SDS011;59836;52.132;5.442;2022-11-20T04:19:09;12.05;;;6.43;;
71965;SDS011;59836;52.132;5.442;2022-11-20T04:21:37;12.53;;;6.77;;
71965;SDS011;59836;52.132;5.442;2022-11-20T04:24:09;11.63;;;5.90;;
71965;SDS011;59836;52.132;5.442;2022-11-20T04:26:40;10.93;;;6.22;;
71965;SDS011;59836;52.132;5.442;2022-11-20T04:29:10;13.38;;;7.10;;
71965;SDS011;59836;52.132;5.442;2022-11-20T04:31:37;13.82;;;6.85;;
71965;SDS011;59836;52.132;5.442;2022-11-20T04:34:04;10.97;;;6.53;;
71965;SDS011;59836;52.132;5.442;2022-11-20T04:36:32;8.48;;;6.07;;
71965;SDS011;59836;52.132;5.442;2022-11-20T04:39:00;11.52;;;6.45;;
71965;SDS011;59836;52.132;5.442;2022-11-20T04:41:30;12.88;;;6.32;;
71965;SDS011;59836;52.132;5.442;2022-11-20T04:44:00;10.82;;;6.20;;
71965;SDS011;59836;52.132;5.442;2022-11-20T04:46:34;12.40;;;6.60;;
71965;SDS011;59836;52.132;5.442;2022-11-20T04:49:05;10.38;;;6.10;;
71965;SDS011;59836;52.132;5.442;2022-11-20T04:51:33;9.75;;;5.80;;
71965;SDS011;59836;52.132;5.442;2022-11-20T04:53:59;13.23;;;6.57;;
71965;SDS011;59836;52.132;5.442;2022-11-20T04:56:26;11.80;;;6.15;;
71965;SDS011;59836;52.132;5.442;2022-11-20T04:58:53;14.90;;;6.90;;
71965;SDS011;59836;52.132;5.442;2022-11-20T05:01:22;12.43;;;5.93;;
71965;SDS011;59836;52.132;5.442;2022-11-20T05:03:50;10.70;;;6.57;;
71965;SDS011;59836;52.132;5.442;2022-11-20T05:06:17;11.30;;;6.13;;
71965;SDS011;59836;52.132;5.442;2022-11-20T05:08:45;12.70;;;6.82;;
71965;SDS011;59836;52.132;5.442;2022-11-20T05:11:13;12.47;;;6.20;;
71965;SDS011;59836;52.132;5.442;2022-11-20T05:13:41;18.73;;;6.05;;
71965;SDS011;59836;52.132;5.442;2022-11-20T05:16:10;11.05;;;6.55;;
71965;SDS011;59836;52.132;5.442;2022-11-20T05:18:38;14.07;;;6.53;;
71965;SDS011;59836;52.132;5.442;2022-11-20T05:21:08;12.13;;;6.43;;
71965;SDS011;59836;52.132;5.442;2022-11-20T05:23:36;10.60;;;6.20;;
71965;SDS011;59836;52.132;5.442;2022-11-20T05:26:12;13.70;;;7.45;;
71965;SDS011;59836;52.132;5.442;2022-11-20T05:28:41;13.55;;;7.03;;
71965;SDS011;59836;52.132;5.442;2022-11-20T05:31:08;14.40;;;7.38;;
71965;SDS011;59836;52.132;5.442;2022-11-20T05:33:40;11.82;;;6.75;;
71965;SDS011;59836;52.132;5.442;2022-11-20T05:36:08;11.97;;;6.50;;
71965;SDS011;59836;52.132;5.442;2022-11-20T05:38:35;13.70;;;6.53;;
71965;SDS011;59836;52.132;5.442;2022-11-20T05:41:06;13.38;;;7.82;;
71965;SDS011;59836;52.132;5.442;2022-11-20T05:43:39;11.32;;;5.68;;
71965;SDS011;59836;52.132;5.442;2022-11-20T05:46:07;12.25;;;6.63;;
71965;SDS011;59836;52.132;5.442;2022-11-20T05:48:35;14.27;;;6.23;;
71965;SDS011;59836;52.132;5.442;2022-11-20T05:51:03;13.05;;;6.35;;
71965;SDS011;59836;52.132;5.442;2022-11-20T05:53:33;14.70;;;6.68;;
71965;SDS011;59836;52.132;5.442;2022-11-20T05:56:03;13.65;;;6.35;;
71965;SDS011;59836;52.132;5.442;2022-11-20T05:58:32;12.02;;;6.25;;
71965;SDS011;59836;52.132;5.442;2022-11-20T06:01:12;10.33;;;5.80;;
71965;SDS011;59836;52.132;5.442;2022-11-20T06:03:41;14.88;;;6.47;;
71965;SDS011;59836;52.132;5.442;2022-11-20T06:06:09;11.82;;;6.05;;
71965;SDS011;59836;52.132;5.442;2022-11-20T06:08:36;13.10;;;6.78;;
71965;SDS011;59836;52.132;5.442;2022-11-20T06:11:03;16.90;;;6.25;;
71965;SDS011;59836;52.132;5.442;2022-11-20T06:13:33;12.23;;;5.73;;
71965;SDS011;59836;52.132;5.442;2022-11-20T06:16:07;14.85;;;6.28;;
71965;SDS011;59836;52.132;5.442;2022-11-20T06:18:38;11.38;;;6.30;;
71965;SDS011;59836;52.132;5.442;2022-11-20T06:21:06;11.07;;;6.43;;
71965;SDS011;59836;52.132;5.442;2022-11-20T06:23:34;11.38;;;5.85;;
71965;SDS011;59836;52.132;5.442;2022-11-20T06:26:02;11.90;;;6.33;;
71965;SDS011;59836;52.132;5.442;2022-11-20T06:28:37;11.18;;;5.97;;
71965;SDS011;59836;52.132;5.442;2022-11-20T06:31:04;13.73;;;6.25;;
71965;SDS011;59836;52.132;5.442;2022-11-20T06:33:31;12.13;;;5.75;;
71965;SDS011;59836;52.132;5.442;2022-11-20T06:36:01;10.75;;;5.88;;
71965;SDS011;59836;52.132;5.442;2022-11-20T06:38:35;12.83;;;6.33;;
71965;SDS011;59836;52.132;5.442;2022-11-20T06:41:03;10.32;;;6.35;;
71965;SDS011;59836;52.132;5.442;2022-11-20T06:43:30;11.20;;;6.03;;
71965;SDS011;59836;52.132;5.442;2022-11-20T06:45:57;9.95;;;5.40;;
71965;SDS011;59836;52.132;5.442;2022-11-20T06:48:26;12.85;;;6.25;;
71965;SDS011;59836;52.132;5.442;2022-11-20T06:50:53;14.00;;;5.97;;
71965;SDS011;59836;52.132;5.442;2022-11-20T06:53:21;12.25;;;6.22;;
71965;SDS011;59836;52.132;5.442;2022-11-20T06:55:48;12.63;;;6.47;;
71965;SDS011;59836;52.132;5.442;2022-11-20T06:58:15;14.93;;;6.43;;
71965;SDS011;59836;52.132;5.442;2022-11-20T07:00:42;14.40;;;6.65;;
71965;SDS011;59836;52.132;5.442;2022-11-20T07:03:10;13.50;;;6.60;;
71965;SDS011;59836;52.132;5.442;2022-11-20T07:05:37;10.63;;;6.32;;
71965;SDS011;59836;52.132;5.442;2022-11-20T07:08:04;15.18;;;7.15;;
71965;SDS011;59836;52.132;5.442;2022-11-20T07:10:31;12.13;;;5.70;;
71965;SDS011;59836;52.132;5.442;2022-11-20T07:12:58;11.20;;;5.95;;
71965;SDS011;59836;52.132;5.442;2022-11-20T07:15:24;11.87;;;6.17;;
71965;SDS011;59836;52.132;5.442;2022-11-20T07:17:51;11.57;;;5.88;;
71965;SDS011;59836;52.132;5.442;2022-11-20T07:20:18;13.13;;;6.40;;
71965;SDS011;59836;52.132;5.442;2022-11-20T07:22:44;10.00;;;5.65;;
71965;SDS011;59836;52.132;5.442;2022-11-20T07:25:11;10.40;;;5.63;;
71965;SDS011;59836;52.132;5.442;2022-11-20T07:27:37;9.63;;;5.73;;
71965;SDS011;59836;52.132;5.442;2022-11-20T07:30:03;12.00;;;6.13;;
71965;SDS011;59836;52.132;5.442;2022-11-20T07:32:30;11.85;;;6.65;;
71965;SDS011;59836;52.132;5.442;2022-11-20T07:34:57;11.95;;;6.03;;
71965;SDS011;59836;52.132;5.442;2022-11-20T07:37:23;13.07;;;6.13;;
71965;SDS011;59836;52.132;5.442;2022-11-20T07:39:51;12.13;;;6.37;;
71965;SDS011;59836;52.132;5.442;2022-11-20T07:42:20;13.95;;;6.13;;
71965;SDS011;59836;52.132;5.442;2022-11-20T07:44:46;12.27;;;7.03;;
71965;SDS011;59836;52.132;5.442;2022-11-20T07:47:13;13.85;;;7.13;;
71965;SDS011;59836;52.132;5.442;2022-11-20T07:52:19;13.13;;;7.53;;
71965;SDS011;59836;52.132;5.442;2022-11-20T07:54:45;13.50;;;7.45;;
71965;SDS011;59836;52.132;5.442;2022-11-20T07:57:11;14.82;;;7.32;;
71965;SDS011;59836;52.132;5.442;2022-11-20T07:59:38;15.90;;;6.85;;
71965;SDS011;59836;52.132;5.442;2022-11-20T08:02:05;13.32;;;6.82;;
71965;SDS011;59836;52.132;5.442;2022-11-20T08:04:38;10.87;;;7.27;;
71965;SDS011;59836;52.132;5.442;2022-11-20T08:07:04;11.45;;;6.82;;
71965;SDS011;59836;52.132;5.442;2022-11-20T08:09:31;13.73;;;7.65;;
71965;SDS011;59836;52.132;5.442;2022-11-20T08:11:58;11.85;;;6.88;;
71965;SDS011;59836;52.132;5.442;2022-11-20T08:14:43;11.48;;;7.07;;
71965;SDS011;59836;52.132;5.442;2022-11-20T08:17:12;14.10;;;7.47;;
71965;SDS011;59836;52.132;5.442;2022-11-20T08:19:38;14.80;;;7.30;;
71965;SDS011;59836;52.132;5.442;2022-11-20T08:22:05;15.70;;;7.43;;
71965;SDS011;59836;52.132;5.442;2022-11-20T08:24:32;13.80;;;7.03;;
71965;SDS011;59836;52.132;5.442;2022-11-20T08:26:58;15.32;;;7.18;;
71965;SDS011;59836;52.132;5.442;2022-11-20T08:32:01;12.77;;;8.02;;
71965;SDS011;59836;52.132;5.442;2022-11-20T08:34:41;11.57;;;6.88;;
71965;SDS011;59836;52.132;5.442;2022-11-20T08:37:13;11.73;;;6.63;;
71965;SDS011;59836;52.132;5.442;2022-11-20T08:39:40;14.52;;;7.38;;
71965;SDS011;59836;52.132;5.442;2022-11-20T08:45:03;15.52;;;7.65;;
71965;SDS011;59836;52.132;5.442;2022-11-20T08:47:30;14.80;;;7.70;;
71965;SDS011;59836;52.132;5.442;2022-11-20T08:49:58;15.65;;;7.78;;
71965;SDS011;59836;52.132;5.442;2022-11-20T08:52:31;18.95;;;8.00;;
71965;SDS011;59836;52.132;5.442;2022-11-20T08:55:15;20.73;;;9.93;;
71965;SDS011;59836;52.132;5.442;2022-11-20T08:57:53;24.65;;;10.30;;
71965;SDS011;59836;52.132;5.442;2022-11-20T09:00:27;31.98;;;12.25;;
71965;SDS011;59836;52.132;5.442;2022-11-20T09:03:03;28.58;;;11.40;;
71965;SDS011;59836;52.132;5.442;2022-11-20T09:05:29;23.35;;;10.15;;
71965;SDS011;59836;52.132;5.442;2022-11-20T09:08:03;15.37;;;8.00;;
71965;SDS011;59836;52.132;5.442;2022-11-20T09:10:29;17.10;;;8.90;;
71965;SDS011;59836;52.132;5.442;2022-11-20T09:12:56;17.88;;;9.20;;
71965;SDS011;59836;52.132;5.442;2022-11-20T09:15:37;17.38;;;8.98;;
71965;SDS011;59836;52.132;5.442;2022-11-20T09:18:03;18.38;;;8.52;;
71965;SDS011;59836;52.132;5.442;2022-11-20T09:20:35;15.80;;;7.93;;
71965;SDS011;59836;52.132;5.442;2022-11-20T09:23:01;16.50;;;7.80;;
71965;SDS011;59836;52.132;5.442;2022-11-20T09:25:29;17.08;;;9.02;;
71965;SDS011;59836;52.132;5.442;2022-11-20T09:27:56;17.92;;;9.27;;
71965;SDS011;59836;52.132;5.442;2022-11-20T09:30:34;14.80;;;8.70;;
71965;SDS011;59836;52.132;5.442;2022-11-20T09:33:03;19.63;;;9.20;;
71965;SDS011;59836;52.132;5.442;2022-11-20T09:35:30;15.50;;;8.65;;
71965;SDS011;59836;52.132;5.442;2022-11-20T09:38:06;18.40;;;9.32;;
71965;SDS011;59836;52.132;5.442;2022-11-20T09:40:37;17.50;;;8.73;;
71965;SDS011;59836;52.132;5.442;2022-11-20T09:46:11;17.10;;;8.43;;
71965;SDS011;59836;52.132;5.442;2022-11-20T09:51:46;16.48;;;8.88;;
71965;SDS011;59836;52.132;5.442;2022-11-20T09:54:25;16.17;;;7.85;;
71965;SDS011;59836;52.132;5.442;2022-11-20T09:56:59;18.30;;;8.52;;
71965;SDS011;59836;52.132;5.442;2022-11-20T09:59:31;17.90;;;8.30;;
71965;SDS011;59836;52.132;5.442;2022-11-20T10:02:08;14.45;;;7.90;;
71965;SDS011;59836;52.132;5.442;2022-11-20T10:05:03;15.07;;;8.65;;
71965;SDS011;59836;52.132;5.442;2022-11-20T10:07:47;16.38;;;8.38;;
71965;SDS011;59836;52.132;5.442;2022-11-20T10:10:40;18.02;;;8.75;;
71965;SDS011;59836;52.132;5.442;2022-11-20T10:19:54;13.95;;;8.52;;
71965;SDS011;59836;52.132;5.442;2022-11-20T10:25:14;17.58;;;8.88;;
71965;SDS011;59836;52.132;5.442;2022-11-20T10:30:28;17.23;;;8.77;;
71965;SDS011;59836;52.132;5.442;2022-11-20T10:33:03;19.58;;;9.98;;
71965;SDS011;59836;52.132;5.442;2022-11-20T10:35:44;19.95;;;9.52;;
71965;SDS011;59836;52.132;5.442;2022-11-20T10:38:18;20.90;;;10.23;;
71965;SDS011;59836;52.132;5.442;2022-11-20T10:40:53;21.00;;;10.30;;
71965;SDS011;59836;52.132;5.442;2022-11-20T10:43:49;21.55;;;10.35;;
71965;SDS011;59836;52.132;5.442;2022-11-20T10:49:12;20.30;;;9.98;;
71965;SDS011;59836;52.132;5.442;2022-11-20T10:51:48;22.63;;;11.90;;
71965;SDS011;59836;52.132;5.442;2022-11-20T11:03:50;21.25;;;10.05;;
71965;SDS011;59836;52.132;5.442;2022-11-20T11:09:10;20.40;;;11.07;;
71965;SDS011;59836;52.132;5.442;2022-11-20T11:11:50;18.08;;;10.13;;
71965;SDS011;59836;52.132;5.442;2022-11-20T11:14:21;22.27;;;11.68;;
71965;SDS011;59836;52.132;5.442;2022-11-20T11:16:57;23.70;;;10.63;;
71965;SDS011;59836;52.132;5.442;2022-11-20T11:19:26;20.08;;;11.23;;
71965;SDS011;59836;52.132;5.442;2022-11-20T11:21:56;20.47;;;10.30;;
71965;SDS011;59836;52.132;5.442;2022-11-20T11:24:24;22.73;;;11.20;;
71965;SDS011;59836;52.132;5.442;2022-11-20T11:27:12;23.80;;;10.77;;
71965;SDS011;59836;52.132;5.442;2022-11-20T11:29:44;21.27;;;11.40;;
71965;SDS011;59836;52.132;5.442;2022-11-20T11:32:12;19.98;;;10.18;;
71965;SDS011;59836;52.132;5.442;2022-11-20T11:34:41;20.40;;;10.67;;
71965;SDS011;59836;52.132;5.442;2022-11-20T11:37:24;24.80;;;11.85;;
71965;SDS011;59836;52.132;5.442;2022-11-20T11:43:05;24.27;;;10.30;;
71965;SDS011;59836;52.132;5.442;2022-11-20T12:00:38;23.67;;;11.48;;
71965;SDS011;59836;52.132;5.442;2022-11-20T12:06:14;22.67;;;11.90;;
71965;SDS011;59836;52.132;5.442;2022-11-20T12:11:31;26.55;;;12.88;;
71965;SDS011;59836;52.132;5.442;2022-11-20T12:17:36;21.63;;;11.30;;
71965;SDS011;59836;52.132;5.442;2022-11-20T12:23:09;21.77;;;12.05;;
71965;SDS011;59836;52.132;5.442;2022-11-20T12:26:08;24.73;;;11.27;;
71965;SDS011;59836;52.132;5.442;2022-11-20T12:29:32;26.95;;;11.70;;
71965;SDS011;59836;52.132;5.442;2022-11-20T12:51:48;25.60;;;12.63;;
71965;SDS011;59836;52.132;5.442;2022-11-20T13:00:18;23.03;;;11.27;;
71965;SDS011;59836;52.132;5.442;2022-11-20T13:07:59;24.33;;;11.95;;
71965;SDS011;59836;52.132;5.442;2022-11-20T13:10:35;23.65;;;11.68;;
71965;SDS011;59836;52.132;5.442;2022-11-20T13:16:35;22.27;;;11.23;;
71965;SDS011;59836;52.132;5.442;2022-11-20T13:19:14;25.58;;;12.07;;
71965;SDS011;59836;52.132;5.442;2022-11-20T13:21:49;25.33;;;12.93;;
71965;SDS011;59836;52.132;5.442;2022-11-20T13:24:29;21.73;;;11.95;;
71965;SDS011;59836;52.132;5.442;2022-11-20T13:32:54;25.20;;;12.10;;
71965;SDS011;59836;52.132;5.442;2022-11-20T13:35:40;21.48;;;11.27;;
71965;SDS011;59836;52.132;5.442;2022-11-20T13:38:08;22.92;;;12.23;;
71965;SDS011;59836;52.132;5.442;2022-11-20T13:40:38;23.60;;;11.57;;
71965;SDS011;59836;52.132;5.442;2022-11-20T13:46:07;21.98;;;11.60;;
71965;SDS011;59836;52.132;5.442;2022-11-20T13:48:38;23.95;;;10.85;;
71965;SDS011;59836;52.132;5.442;2022-11-20T14:03:01;27.30;;;13.27;;
71965;SDS011;59836;52.132;5.442;2022-11-20T14:11:34;28.38;;;13.55;;
71965;SDS011;59836;52.132;5.442;2022-11-20T14:20:12;21.30;;;11.48;;
71965;SDS011;59836;52.132;5.442;2022-11-20T14:22:47;24.80;;;12.00;;
71965;SDS011;59836;52.132;5.442;2022-11-20T14:25:26;27.23;;;12.35;;
71965;SDS011;59836;52.132;5.442;2022-11-20T14:27:54;23.80;;;12.15;;
71965;SDS011;59836;52.132;5.442;2022-11-20T14:30:24;27.05;;;12.23;;
71965;SDS011;59836;52.132;5.442;2022-11-20T14:33:00;23.48;;;12.77;;
71965;SDS011;59836;52.132;5.442;2022-11-20T14:35:30;25.93;;;11.37;;
71965;SDS011;59836;52.132;5.442;2022-11-20T14:38:02;24.92;;;11.80;;
71965;SDS011;59836;52.132;5.442;2022-11-20T14:40:47;27.30;;;12.85;;
71965;SDS011;59836;52.132;5.442;2022-11-20T14:46:21;26.33;;;13.95;;
71965;SDS011;59836;52.132;5.442;2022-11-20T14:51:57;24.27;;;12.15;;
71965;SDS011;59836;52.132;5.442;2022-11-20T14:54:28;24.85;;;12.13;;
71965;SDS011;59836;52.132;5.442;2022-11-20T14:57:02;21.65;;;12.65;;
71965;SDS011;59836;52.132;5.442;2022-11-20T14:59:31;26.05;;;11.82;;
71965;SDS011;59836;52.132;5.442;2022-11-20T15:02:10;25.97;;;12.67;;
71965;SDS011;59836;52.132;5.442;2022-11-20T15:04:50;23.42;;;11.38;;
71965;SDS011;59836;52.132;5.442;2022-11-20T15:07:27;25.08;;;13.00;;
71965;SDS011;59836;52.132;5.442;2022-11-20T15:12:55;25.83;;;11.50;;
71965;SDS011;59836;52.132;5.442;2022-11-20T15:23:52;22.80;;;11.90;;
71965;SDS011;59836;52.132;5.442;2022-11-20T15:26:24;28.80;;;12.43;;
71965;SDS011;59836;52.132;5.442;2022-11-20T15:28:52;26.93;;;12.50;;
71965;SDS011;59836;52.132;5.442;2022-11-20T15:31:19;22.35;;;12.00;;
71965;SDS011;59836;52.132;5.442;2022-11-20T15:33:49;27.40;;;12.98;;
71965;SDS011;59836;52.132;5.442;2022-11-20T15:36:16;23.90;;;12.85;;
71965;SDS011;59836;52.132;5.442;2022-11-20T15:38:43;26.20;;;13.02;;
71965;SDS011;59836;52.132;5.442;2022-11-20T15:41:09;25.10;;;13.33;;
71965;SDS011;59836;52.132;5.442;2022-11-20T15:43:36;29.73;;;13.68;;
71965;SDS011;59836;52.132;5.442;2022-11-20T15:46:05;26.65;;;13.27;;
71965;SDS011;59836;52.132;5.442;2022-11-20T15:48:36;28.30;;;13.70;;
71965;SDS011;59836;52.132;5.442;2022-11-20T15:51:27;24.45;;;13.07;;
71965;SDS011;59836;52.132;5.442;2022-11-20T15:53:55;28.47;;;13.33;;
71965;SDS011;59836;52.132;5.442;2022-11-20T15:56:23;26.58;;;13.18;;
71965;SDS011;59836;52.132;5.442;2022-11-20T15:58:49;28.25;;;14.10;;
71965;SDS011;59836;52.132;5.442;2022-11-20T16:01:20;26.88;;;12.68;;
71965;SDS011;59836;52.132;5.442;2022-11-20T16:03:48;25.88;;;13.63;;
71965;SDS011;59836;52.132;5.442;2022-11-20T16:06:14;28.67;;;12.67;;
71965;SDS011;59836;52.132;5.442;2022-11-20T16:08:43;30.45;;;12.95;;
71965;SDS011;59836;52.132;5.442;2022-11-20T16:11:13;25.25;;;12.95;;
71965;SDS011;59836;52.132;5.442;2022-11-20T16:13:41;25.02;;;13.00;;
71965;SDS011;59836;52.132;5.442;2022-11-20T16:16:31;26.00;;;12.55;;
71965;SDS011;59836;52.132;5.442;2022-11-20T16:18:59;30.00;;;14.67;;
71965;SDS011;59836;52.132;5.442;2022-11-20T16:21:26;25.70;;;14.15;;
71965;SDS011;59836;52.132;5.442;2022-11-20T16:23:58;25.92;;;14.70;;
71965;SDS011;59836;52.132;5.442;2022-11-20T16:26:34;35.65;;;15.80;;
71965;SDS011;59836;52.132;5.442;2022-11-20T16:29:01;24.58;;;13.10;;
71965;SDS011;59836;52.132;5.442;2022-11-20T16:31:42;23.33;;;12.80;;
71965;SDS011;59836;52.132;5.442;2022-11-20T16:34:09;28.23;;;13.32;;
71965;SDS011;59836;52.132;5.442;2022-11-20T16:36:43;27.77;;;14.57;;
71965;SDS011;59836;52.132;5.442;2022-11-20T16:39:12;23.88;;;13.40;;
71965;SDS011;59836;52.132;5.442;2022-11-20T16:41:38;24.80;;;12.98;;
71965;SDS011;59836;52.132;5.442;2022-11-20T16:44:09;23.30;;;12.27;;
71965;SDS011;59836;52.132;5.442;2022-11-20T16:46:38;22.17;;;11.75;;
71965;SDS011;59836;52.132;5.442;2022-11-20T16:49:06;24.65;;;13.23;;
71965;SDS011;59836;52.132;5.442;2022-11-20T16:51:47;25.55;;;13.00;;
71965;SDS011;59836;52.132;5.442;2022-11-20T16:54:14;25.60;;;13.85;;
71965;SDS011;59836;52.132;5.442;2022-11-20T16:56:46;22.87;;;12.10;;
71965;SDS011;59836;52.132;5.442;2022-11-20T16:59:13;24.15;;;12.00;;
71965;SDS011;59836;52.132;5.442;2022-11-20T17:01:39;22.02;;;12.05;;
71965;SDS011;59836;52.132;5.442;2022-11-20T17:04:08;22.50;;;12.70;;
71965;SDS011;59836;52.132;5.442;2022-11-20T17:06:40;23.63;;;12.98;;
71965;SDS011;59836;52.132;5.442;2022-11-20T17:09:11;26.13;;;12.60;;
71965;SDS011;59836;52.132;5.442;2022-11-20T17:11:39;22.80;;;12.68;;
71965;SDS011;59836;52.132;5.442;2022-11-20T17:14:07;23.45;;;13.05;;
71965;SDS011;59836;52.132;5.442;2022-11-20T17:16:36;27.08;;;13.65;;
71965;SDS011;59836;52.132;5.442;2022-11-20T17:19:04;26.20;;;12.73;;
71965;SDS011;59836;52.132;5.442;2022-11-20T17:21:32;25.67;;;12.83;;
71965;SDS011;59836;52.132;5.442;2022-11-20T17:24:03;24.25;;;12.95;;
71965;SDS011;59836;52.132;5.442;2022-11-20T17:26:35;25.10;;;12.65;;
71965;SDS011;59836;52.132;5.442;2022-11-20T17:29:04;25.35;;;13.93;;
71965;SDS011;59836;52.132;5.442;2022-11-20T17:31:31;26.80;;;13.35;;
71965;SDS011;59836;52.132;5.442;2022-11-20T17:33:59;21.63;;;12.03;;
71965;SDS011;59836;52.132;5.442;2022-11-20T17:36:27;25.27;;;13.23;;
71965;SDS011;59836;52.132;5.442;2022-11-20T17:38:54;22.17;;;12.10;;
71965;SDS011;59836;52.132;5.442;2022-11-20T17:41:22;21.58;;;12.13;;
71965;SDS011;59836;52.132;5.442;2022-11-20T17:43:53;23.52;;;11.98;;
71965;SDS011;59836;52.132;5.442;2022-11-20T17:46:23;23.43;;;11.93;;
71965;SDS011;59836;52.132;5.442;2022-11-20T17:48:50;23.25;;;13.13;;
71965;SDS011;59836;52.132;5.442;2022-11-20T17:51:32;28.10;;;14.07;;
71965;SDS011;59836;52.132;5.442;2022-11-20T17:54:01;23.52;;;12.57;;
71965;SDS011;59836;52.132;5.442;2022-11-20T17:56:31;26.67;;;13.98;;
71965;SDS011;59836;52.132;5.442;2022-11-20T17:59:18;25.53;;;12.63;;
71965;SDS011;59836;52.132;5.442;2022-11-20T18:01:44;26.15;;;12.88;;
71965;SDS011;59836;52.132;5.442;2022-11-20T18:09:27;21.55;;;12.40;;